sensor_id;sensor_type;location;lat;lon;timestamp;P1;durP1;ratioP1;P2;durP2;ratioP2
13475;SDS011;6810;63.824;20.288;2024-03-25T00:00:17;2.57;;;1.40;;
13475;SDS011;6810;63.824;20.288;2024-03-25T00:03:03;1.23;;;1.10;;
13475;SDS011;6810;63.824;20.288;2024-03-25T00:05:49;1.93;;;0.90;;
13475;SDS011;6810;63.824;20.288;2024-03-25T00:08:36;2.93;;;1.10;;
13475;SDS011;6810;63.824;20.288;2024-03-25T00:11:22;2.13;;;0.83;;
13475;SDS011;6810;63.824;20.288;2024-03-25T00:14:08;1.93;;;1.03;;
13475;SDS011;6810;63.824;20.288;2024-03-25T00:16:34;1.77;;;1.10;;
13475;SDS011;6810;63.824;20.288;2024-03-25T00:19:01;2.17;;;1.10;;
13475;SDS011;6810;63.824;20.288;2024-03-25T00:21:27;7.37;;;1.00;;
13475;SDS011;6810;63.824;20.288;2024-03-25T00:23:53;3.50;;;1.07;;
13475;SDS011;6810;63.824;20.288;2024-03-25T00:26:39;1.40;;;1.03;;
13475;SDS011;6810;63.824;20.288;2024-03-25T00:29:25;1.57;;;0.90;;
13475;SDS011;6810;63.824;20.288;2024-03-25T00:32:11;1.97;;;1.10;;
13475;SDS011;6810;63.824;20.288;2024-03-25T00:34:57;2.40;;;1.03;;
13475;SDS011;6810;63.824;20.288;2024-03-25T00:37:43;1.20;;;1.00;;
13475;SDS011;6810;63.824;20.288;2024-03-25T00:40:30;3.17;;;1.20;;
13475;SDS011;6810;63.824;20.288;2024-03-25T00:43:16;4.43;;;0.93;;
13475;SDS011;6810;63.824;20.288;2024-03-25T00:46:02;0.63;;;0.63;;
13475;SDS011;6810;63.824;20.288;2024-03-25T00:48:48;1.83;;;1.00;;
13475;SDS011;6810;63.824;20.288;2024-03-25T00:51:34;2.63;;;1.20;;
13475;SDS011;6810;63.824;20.288;2024-03-25T00:54:20;1.30;;;0.73;;
13475;SDS011;6810;63.824;20.288;2024-03-25T00:57:06;1.90;;;0.87;;
13475;SDS011;6810;63.824;20.288;2024-03-25T00:59:52;1.37;;;0.87;;
13475;SDS011;6810;63.824;20.288;2024-03-25T01:02:38;2.00;;;0.97;;
13475;SDS011;6810;63.824;20.288;2024-03-25T01:05:25;1.10;;;0.97;;
13475;SDS011;6810;63.824;20.288;2024-03-25T01:08:11;2.00;;;1.07;;
13475;SDS011;6810;63.824;20.288;2024-03-25T01:10:57;2.23;;;0.90;;
13475;SDS011;6810;63.824;20.288;2024-03-25T01:13:43;1.13;;;0.97;;
13475;SDS011;6810;63.824;20.288;2024-03-25T01:16:29;1.70;;;1.10;;
13475;SDS011;6810;63.824;20.288;2024-03-25T01:19:15;1.23;;;0.90;;
13475;SDS011;6810;63.824;20.288;2024-03-25T01:22:01;0.70;;;0.70;;
13475;SDS011;6810;63.824;20.288;2024-03-25T01:24:47;1.17;;;0.90;;
13475;SDS011;6810;63.824;20.288;2024-03-25T01:27:34;2.10;;;1.07;;
13475;SDS011;6810;63.824;20.288;2024-03-25T01:30:20;1.10;;;0.93;;
13475;SDS011;6810;63.824;20.288;2024-03-25T01:33:06;0.97;;;0.73;;
13475;SDS011;6810;63.824;20.288;2024-03-25T01:35:52;1.63;;;1.00;;
13475;SDS011;6810;63.824;20.288;2024-03-25T01:38:38;1.97;;;1.00;;
13475;SDS011;6810;63.824;20.288;2024-03-25T01:41:24;1.43;;;1.00;;
13475;SDS011;6810;63.824;20.288;2024-03-25T01:44:10;2.20;;;0.90;;
13475;SDS011;6810;63.824;20.288;2024-03-25T01:46:56;1.90;;;0.97;;
13475;SDS011;6810;63.824;20.288;2024-03-25T01:49:43;2.33;;;1.60;;
13475;SDS011;6810;63.824;20.288;2024-03-25T01:52:29;2.53;;;0.93;;
13475;SDS011;6810;63.824;20.288;2024-03-25T01:55:17;1.53;;;0.97;;
13475;SDS011;6810;63.824;20.288;2024-03-25T01:58:08;0.60;;;0.40;;
13475;SDS011;6810;63.824;20.288;2024-03-25T02:00:55;1.07;;;0.60;;
13475;SDS011;6810;63.824;20.288;2024-03-25T02:03:42;1.40;;;1.00;;
13475;SDS011;6810;63.824;20.288;2024-03-25T02:06:28;0.83;;;0.73;;
13475;SDS011;6810;63.824;20.288;2024-03-25T02:09:16;1.90;;;1.20;;
13475;SDS011;6810;63.824;20.288;2024-03-25T02:12:03;1.57;;;1.10;;
13475;SDS011;6810;63.824;20.288;2024-03-25T02:14:50;2.47;;;1.20;;
13475;SDS011;6810;63.824;20.288;2024-03-25T02:17:36;0.70;;;0.57;;
13475;SDS011;6810;63.824;20.288;2024-03-25T02:20:23;2.73;;;0.97;;
13475;SDS011;6810;63.824;20.288;2024-03-25T02:23:09;1.43;;;0.93;;
13475;SDS011;6810;63.824;20.288;2024-03-25T02:25:55;3.13;;;1.07;;
13475;SDS011;6810;63.824;20.288;2024-03-25T02:28:41;1.33;;;0.70;;
13475;SDS011;6810;63.824;20.288;2024-03-25T02:31:27;1.30;;;0.90;;
13475;SDS011;6810;63.824;20.288;2024-03-25T02:34:13;1.20;;;0.70;;
13475;SDS011;6810;63.824;20.288;2024-03-25T02:36:59;1.90;;;0.83;;
13475;SDS011;6810;63.824;20.288;2024-03-25T02:39:46;2.40;;;1.47;;
13475;SDS011;6810;63.824;20.288;2024-03-25T02:42:32;2.23;;;0.77;;
13475;SDS011;6810;63.824;20.288;2024-03-25T02:45:18;1.80;;;1.20;;
13475;SDS011;6810;63.824;20.288;2024-03-25T02:48:04;1.37;;;0.97;;
13475;SDS011;6810;63.824;20.288;2024-03-25T02:50:50;1.57;;;0.80;;
13475;SDS011;6810;63.824;20.288;2024-03-25T02:53:36;1.60;;;1.07;;
13475;SDS011;6810;63.824;20.288;2024-03-25T02:56:23;1.00;;;0.80;;
13475;SDS011;6810;63.824;20.288;2024-03-25T02:59:08;1.07;;;0.73;;
13475;SDS011;6810;63.824;20.288;2024-03-25T03:01:55;1.77;;;0.90;;
13475;SDS011;6810;63.824;20.288;2024-03-25T03:04:41;1.10;;;0.80;;
13475;SDS011;6810;63.824;20.288;2024-03-25T03:07:27;4.00;;;0.80;;
13475;SDS011;6810;63.824;20.288;2024-03-25T03:10:13;1.00;;;0.90;;
13475;SDS011;6810;63.824;20.288;2024-03-25T03:12:59;0.83;;;0.67;;
13475;SDS011;6810;63.824;20.288;2024-03-25T03:15:45;2.67;;;0.90;;
13475;SDS011;6810;63.824;20.288;2024-03-25T03:18:31;1.50;;;0.97;;
13475;SDS011;6810;63.824;20.288;2024-03-25T03:21:17;5.50;;;1.10;;
13475;SDS011;6810;63.824;20.288;2024-03-25T03:24:04;1.00;;;0.70;;
13475;SDS011;6810;63.824;20.288;2024-03-25T03:26:50;1.30;;;0.73;;
13475;SDS011;6810;63.824;20.288;2024-03-25T03:29:36;0.97;;;0.83;;
13475;SDS011;6810;63.824;20.288;2024-03-25T03:32:22;2.23;;;0.80;;
13475;SDS011;6810;63.824;20.288;2024-03-25T03:35:09;1.53;;;0.90;;
13475;SDS011;6810;63.824;20.288;2024-03-25T03:37:55;0.87;;;0.77;;
13475;SDS011;6810;63.824;20.288;2024-03-25T03:40:41;1.70;;;1.00;;
13475;SDS011;6810;63.824;20.288;2024-03-25T03:43:28;2.23;;;0.70;;
13475;SDS011;6810;63.824;20.288;2024-03-25T03:46:14;1.63;;;1.10;;
13475;SDS011;6810;63.824;20.288;2024-03-25T03:49:00;0.83;;;0.80;;
13475;SDS011;6810;63.824;20.288;2024-03-25T03:51:46;1.60;;;1.00;;
13475;SDS011;6810;63.824;20.288;2024-03-25T03:54:32;2.67;;;0.80;;
13475;SDS011;6810;63.824;20.288;2024-03-25T03:57:18;1.60;;;1.07;;
13475;SDS011;6810;63.824;20.288;2024-03-25T04:00:04;3.07;;;1.13;;
13475;SDS011;6810;63.824;20.288;2024-03-25T04:02:51;1.53;;;1.20;;
13475;SDS011;6810;63.824;20.288;2024-03-25T04:05:37;0.77;;;0.77;;
13475;SDS011;6810;63.824;20.288;2024-03-25T04:08:23;1.13;;;0.97;;
13475;SDS011;6810;63.824;20.288;2024-03-25T04:11:09;2.47;;;0.93;;
13475;SDS011;6810;63.824;20.288;2024-03-25T04:13:56;1.33;;;0.73;;
13475;SDS011;6810;63.824;20.288;2024-03-25T04:16:42;1.47;;;0.53;;
13475;SDS011;6810;63.824;20.288;2024-03-25T04:19:28;1.50;;;0.70;;
13475;SDS011;6810;63.824;20.288;2024-03-25T04:22:14;1.17;;;0.80;;
13475;SDS011;6810;63.824;20.288;2024-03-25T04:25:00;1.70;;;0.87;;
13475;SDS011;6810;63.824;20.288;2024-03-25T04:27:46;0.70;;;0.70;;
13475;SDS011;6810;63.824;20.288;2024-03-25T04:30:32;2.83;;;1.10;;
13475;SDS011;6810;63.824;20.288;2024-03-25T04:33:19;1.20;;;1.00;;
13475;SDS011;6810;63.824;20.288;2024-03-25T04:36:05;1.43;;;0.63;;
13475;SDS011;6810;63.824;20.288;2024-03-25T04:38:51;0.73;;;0.53;;
13475;SDS011;6810;63.824;20.288;2024-03-25T04:41:38;2.17;;;1.10;;
13475;SDS011;6810;63.824;20.288;2024-03-25T04:44:24;1.43;;;0.90;;
13475;SDS011;6810;63.824;20.288;2024-03-25T04:47:10;1.70;;;1.07;;
13475;SDS011;6810;63.824;20.288;2024-03-25T04:49:57;2.37;;;1.30;;
13475;SDS011;6810;63.824;20.288;2024-03-25T04:52:43;4.80;;;0.93;;
13475;SDS011;6810;63.824;20.288;2024-03-25T04:55:29;1.50;;;1.07;;
13475;SDS011;6810;63.824;20.288;2024-03-25T04:58:15;1.17;;;0.70;;
13475;SDS011;6810;63.824;20.288;2024-03-25T05:01:02;1.43;;;0.90;;
13475;SDS011;6810;63.824;20.288;2024-03-25T05:03:48;3.47;;;1.20;;
13475;SDS011;6810;63.824;20.288;2024-03-25T05:06:35;2.03;;;0.80;;
13475;SDS011;6810;63.824;20.288;2024-03-25T05:09:21;0.77;;;0.70;;
13475;SDS011;6810;63.824;20.288;2024-03-25T05:12:07;1.60;;;0.80;;
13475;SDS011;6810;63.824;20.288;2024-03-25T05:14:53;3.93;;;1.40;;
13475;SDS011;6810;63.824;20.288;2024-03-25T05:17:41;3.03;;;1.57;;
13475;SDS011;6810;63.824;20.288;2024-03-25T05:20:27;3.43;;;1.23;;
13475;SDS011;6810;63.824;20.288;2024-03-25T05:23:13;1.90;;;0.73;;
13475;SDS011;6810;63.824;20.288;2024-03-25T05:25:59;1.40;;;1.00;;
13475;SDS011;6810;63.824;20.288;2024-03-25T05:28:45;1.07;;;0.80;;
13475;SDS011;6810;63.824;20.288;2024-03-25T05:31:31;1.13;;;0.90;;
13475;SDS011;6810;63.824;20.288;2024-03-25T05:34:17;1.73;;;0.90;;
13475;SDS011;6810;63.824;20.288;2024-03-25T05:37:04;1.20;;;0.90;;
13475;SDS011;6810;63.824;20.288;2024-03-25T05:39:50;3.33;;;1.50;;
13475;SDS011;6810;63.824;20.288;2024-03-25T05:42:36;3.10;;;1.27;;
13475;SDS011;6810;63.824;20.288;2024-03-25T05:45:23;3.93;;;1.20;;
13475;SDS011;6810;63.824;20.288;2024-03-25T05:48:09;2.70;;;1.10;;
13475;SDS011;6810;63.824;20.288;2024-03-25T05:50:59;1.80;;;1.07;;
13475;SDS011;6810;63.824;20.288;2024-03-25T05:53:45;3.03;;;1.20;;
13475;SDS011;6810;63.824;20.288;2024-03-25T05:56:31;3.13;;;0.90;;
13475;SDS011;6810;63.824;20.288;2024-03-25T05:59:17;2.07;;;1.33;;
13475;SDS011;6810;63.824;20.288;2024-03-25T06:02:03;1.63;;;1.20;;
13475;SDS011;6810;63.824;20.288;2024-03-25T06:04:49;4.93;;;1.27;;
13475;SDS011;6810;63.824;20.288;2024-03-25T06:07:35;3.27;;;1.10;;
13475;SDS011;6810;63.824;20.288;2024-03-25T06:10:21;6.53;;;1.50;;
13475;SDS011;6810;63.824;20.288;2024-03-25T06:13:07;3.30;;;1.20;;
13475;SDS011;6810;63.824;20.288;2024-03-25T06:15:53;7.47;;;1.57;;
13475;SDS011;6810;63.824;20.288;2024-03-25T06:18:40;4.47;;;1.27;;
13475;SDS011;6810;63.824;20.288;2024-03-25T06:21:26;1.50;;;0.80;;
13475;SDS011;6810;63.824;20.288;2024-03-25T06:24:12;2.33;;;0.80;;
13475;SDS011;6810;63.824;20.288;2024-03-25T06:26:58;5.50;;;1.17;;
13475;SDS011;6810;63.824;20.288;2024-03-25T06:29:44;1.93;;;0.93;;
13475;SDS011;6810;63.824;20.288;2024-03-25T06:32:30;2.17;;;1.10;;
13475;SDS011;6810;63.824;20.288;2024-03-25T06:35:25;6.67;;;1.17;;
13475;SDS011;6810;63.824;20.288;2024-03-25T06:38:11;2.60;;;1.33;;
13475;SDS011;6810;63.824;20.288;2024-03-25T06:40:57;2.67;;;0.90;;
13475;SDS011;6810;63.824;20.288;2024-03-25T06:43:43;1.60;;;0.80;;
13475;SDS011;6810;63.824;20.288;2024-03-25T06:46:29;1.77;;;1.10;;
13475;SDS011;6810;63.824;20.288;2024-03-25T06:49:15;1.70;;;1.10;;
13475;SDS011;6810;63.824;20.288;2024-03-25T06:52:01;3.20;;;1.47;;
13475;SDS011;6810;63.824;20.288;2024-03-25T06:54:48;2.13;;;0.97;;
13475;SDS011;6810;63.824;20.288;2024-03-25T06:57:34;1.87;;;1.33;;
13475;SDS011;6810;63.824;20.288;2024-03-25T07:00:20;1.80;;;1.07;;
13475;SDS011;6810;63.824;20.288;2024-03-25T07:03:06;4.10;;;0.97;;
13475;SDS011;6810;63.824;20.288;2024-03-25T07:05:52;2.67;;;1.30;;
13475;SDS011;6810;63.824;20.288;2024-03-25T07:08:38;1.90;;;1.00;;
13475;SDS011;6810;63.824;20.288;2024-03-25T07:11:24;1.80;;;0.93;;
13475;SDS011;6810;63.824;20.288;2024-03-25T07:14:10;3.13;;;1.10;;
13475;SDS011;6810;63.824;20.288;2024-03-25T07:16:57;1.50;;;1.13;;
13475;SDS011;6810;63.824;20.288;2024-03-25T07:19:43;2.10;;;1.30;;
13475;SDS011;6810;63.824;20.288;2024-03-25T07:22:29;2.60;;;0.97;;
13475;SDS011;6810;63.824;20.288;2024-03-25T07:25:15;2.30;;;1.10;;
13475;SDS011;6810;63.824;20.288;2024-03-25T07:28:02;2.53;;;1.40;;
13475;SDS011;6810;63.824;20.288;2024-03-25T07:30:49;1.70;;;1.17;;
13475;SDS011;6810;63.824;20.288;2024-03-25T07:33:16;4.10;;;1.40;;
13475;SDS011;6810;63.824;20.288;2024-03-25T07:36:02;2.93;;;1.20;;
13475;SDS011;6810;63.824;20.288;2024-03-25T07:38:48;2.63;;;1.07;;
13475;SDS011;6810;63.824;20.288;2024-03-25T07:41:34;2.33;;;1.40;;
13475;SDS011;6810;63.824;20.288;2024-03-25T07:44:20;1.70;;;0.97;;
13475;SDS011;6810;63.824;20.288;2024-03-25T07:47:06;2.37;;;1.10;;
13475;SDS011;6810;63.824;20.288;2024-03-25T07:49:52;2.47;;;1.47;;
13475;SDS011;6810;63.824;20.288;2024-03-25T07:52:38;2.83;;;1.20;;
13475;SDS011;6810;63.824;20.288;2024-03-25T07:55:28;2.57;;;1.10;;
13475;SDS011;6810;63.824;20.288;2024-03-25T07:58:14;2.83;;;1.07;;
13475;SDS011;6810;63.824;20.288;2024-03-25T08:01:05;1.97;;;0.80;;
13475;SDS011;6810;63.824;20.288;2024-03-25T08:03:51;2.40;;;1.10;;
13475;SDS011;6810;63.824;20.288;2024-03-25T08:06:39;1.37;;;1.20;;
13475;SDS011;6810;63.824;20.288;2024-03-25T08:09:25;2.13;;;1.20;;
13475;SDS011;6810;63.824;20.288;2024-03-25T08:12:11;1.83;;;1.00;;
13475;SDS011;6810;63.824;20.288;2024-03-25T08:14:57;3.17;;;1.00;;
13475;SDS011;6810;63.824;20.288;2024-03-25T08:17:23;2.07;;;1.33;;
13475;SDS011;6810;63.824;20.288;2024-03-25T08:20:10;1.47;;;0.87;;
13475;SDS011;6810;63.824;20.288;2024-03-25T08:22:56;2.27;;;1.27;;
13475;SDS011;6810;63.824;20.288;2024-03-25T08:25:42;2.17;;;1.00;;
13475;SDS011;6810;63.824;20.288;2024-03-25T08:28:29;2.00;;;1.20;;
13475;SDS011;6810;63.824;20.288;2024-03-25T08:31:15;2.43;;;1.00;;
13475;SDS011;6810;63.824;20.288;2024-03-25T08:34:01;2.03;;;1.17;;
13475;SDS011;6810;63.824;20.288;2024-03-25T08:36:47;3.80;;;1.30;;
13475;SDS011;6810;63.824;20.288;2024-03-25T08:39:33;1.57;;;1.10;;
13475;SDS011;6810;63.824;20.288;2024-03-25T08:42:19;2.07;;;1.10;;
13475;SDS011;6810;63.824;20.288;2024-03-25T08:45:05;1.83;;;1.10;;
13475;SDS011;6810;63.824;20.288;2024-03-25T08:47:52;2.33;;;1.00;;
13475;SDS011;6810;63.824;20.288;2024-03-25T08:50:38;1.90;;;1.00;;
13475;SDS011;6810;63.824;20.288;2024-03-25T08:53:24;2.53;;;1.17;;
13475;SDS011;6810;63.824;20.288;2024-03-25T08:56:11;1.80;;;1.10;;
13475;SDS011;6810;63.824;20.288;2024-03-25T08:58:57;2.20;;;1.30;;
13475;SDS011;6810;63.824;20.288;2024-03-25T09:01:43;2.53;;;1.47;;
13475;SDS011;6810;63.824;20.288;2024-03-25T09:04:29;2.27;;;1.10;;
13475;SDS011;6810;63.824;20.288;2024-03-25T09:07:15;1.20;;;1.10;;
13475;SDS011;6810;63.824;20.288;2024-03-25T09:10:01;2.00;;;1.30;;
13475;SDS011;6810;63.824;20.288;2024-03-25T09:12:46;2.03;;;1.27;;
13475;SDS011;6810;63.824;20.288;2024-03-25T09:15:32;3.03;;;1.40;;
13475;SDS011;6810;63.824;20.288;2024-03-25T09:18:19;1.47;;;1.37;;
13475;SDS011;6810;63.824;20.288;2024-03-25T09:21:08;2.57;;;1.60;;
13475;SDS011;6810;63.824;20.288;2024-03-25T09:23:54;1.87;;;1.40;;
13475;SDS011;6810;63.824;20.288;2024-03-25T09:26:40;2.93;;;1.40;;
13475;SDS011;6810;63.824;20.288;2024-03-25T09:29:26;3.47;;;1.43;;
13475;SDS011;6810;63.824;20.288;2024-03-25T09:32:12;1.70;;;1.40;;
13475;SDS011;6810;63.824;20.288;2024-03-25T09:34:59;2.50;;;1.63;;
13475;SDS011;6810;63.824;20.288;2024-03-25T09:37:45;2.03;;;1.27;;
13475;SDS011;6810;63.824;20.288;2024-03-25T09:40:31;2.27;;;1.60;;
13475;SDS011;6810;63.824;20.288;2024-03-25T09:43:25;2.07;;;1.20;;
13475;SDS011;6810;63.824;20.288;2024-03-25T09:46:18;2.90;;;1.60;;
13475;SDS011;6810;63.824;20.288;2024-03-25T09:49:04;1.67;;;1.23;;
13475;SDS011;6810;63.824;20.288;2024-03-25T09:51:50;4.30;;;1.40;;
13475;SDS011;6810;63.824;20.288;2024-03-25T09:54:36;1.40;;;1.20;;
13475;SDS011;6810;63.824;20.288;2024-03-25T09:57:22;2.50;;;1.30;;
13475;SDS011;6810;63.824;20.288;2024-03-25T10:00:10;2.57;;;1.47;;
13475;SDS011;6810;63.824;20.288;2024-03-25T10:02:57;2.30;;;1.37;;
13475;SDS011;6810;63.824;20.288;2024-03-25T10:05:43;2.57;;;1.37;;
13475;SDS011;6810;63.824;20.288;2024-03-25T10:08:31;1.77;;;1.43;;
13475;SDS011;6810;63.824;20.288;2024-03-25T10:11:17;3.97;;;1.57;;
13475;SDS011;6810;63.824;20.288;2024-03-25T10:14:03;2.40;;;1.57;;
13475;SDS011;6810;63.824;20.288;2024-03-25T10:16:50;2.33;;;1.50;;
13475;SDS011;6810;63.824;20.288;2024-03-25T10:19:37;1.40;;;1.30;;
13475;SDS011;6810;63.824;20.288;2024-03-25T10:22:23;2.07;;;1.47;;
13475;SDS011;6810;63.824;20.288;2024-03-25T10:25:28;2.97;;;1.53;;
13475;SDS011;6810;63.824;20.288;2024-03-25T10:28:15;2.13;;;1.57;;
13475;SDS011;6810;63.824;20.288;2024-03-25T10:31:04;1.30;;;1.20;;
13475;SDS011;6810;63.824;20.288;2024-03-25T10:33:52;1.93;;;1.30;;
13475;SDS011;6810;63.824;20.288;2024-03-25T10:36:38;3.37;;;1.70;;
13475;SDS011;6810;63.824;20.288;2024-03-25T10:39:25;2.43;;;1.40;;
13475;SDS011;6810;63.824;20.288;2024-03-25T10:42:13;1.40;;;1.30;;
13475;SDS011;6810;63.824;20.288;2024-03-25T10:44:59;2.10;;;1.40;;
13475;SDS011;6810;63.824;20.288;2024-03-25T10:47:46;2.37;;;1.60;;
13475;SDS011;6810;63.824;20.288;2024-03-25T10:50:33;1.67;;;1.40;;
13475;SDS011;6810;63.824;20.288;2024-03-25T10:53:21;2.37;;;1.30;;
13475;SDS011;6810;63.824;20.288;2024-03-25T10:56:07;1.77;;;1.33;;
13475;SDS011;6810;63.824;20.288;2024-03-25T10:58:54;1.63;;;1.30;;
13475;SDS011;6810;63.824;20.288;2024-03-25T11:01:41;1.70;;;1.30;;
13475;SDS011;6810;63.824;20.288;2024-03-25T11:04:27;2.10;;;1.43;;
13475;SDS011;6810;63.824;20.288;2024-03-25T11:07:14;2.20;;;1.30;;
13475;SDS011;6810;63.824;20.288;2024-03-25T11:10:04;1.77;;;1.50;;
13475;SDS011;6810;63.824;20.288;2024-03-25T11:12:52;2.50;;;1.50;;
13475;SDS011;6810;63.824;20.288;2024-03-25T12:13:27;1.40;;;1.30;;
13475;SDS011;6810;63.824;20.288;2024-03-25T12:15:53;1.50;;;1.40;;
13475;SDS011;6810;63.824;20.288;2024-03-25T12:18:20;2.07;;;1.30;;
13475;SDS011;6810;63.824;20.288;2024-03-25T12:20:46;1.73;;;1.20;;
13475;SDS011;6810;63.824;20.288;2024-03-25T12:23:33;1.40;;;1.10;;
13475;SDS011;6810;63.824;20.288;2024-03-25T12:26:20;1.93;;;1.30;;
13475;SDS011;6810;63.824;20.288;2024-03-25T12:29:06;1.27;;;1.13;;
13475;SDS011;6810;63.824;20.288;2024-03-25T12:31:57;1.30;;;1.20;;
13475;SDS011;6810;63.824;20.288;2024-03-25T12:34:43;1.40;;;1.30;;
13475;SDS011;6810;63.824;20.288;2024-03-25T12:37:30;1.27;;;1.07;;
13475;SDS011;6810;63.824;20.288;2024-03-25T12:40:27;1.40;;;1.17;;
13475;SDS011;6810;63.824;20.288;2024-03-25T12:43:15;1.27;;;1.17;;
13475;SDS011;6810;63.824;20.288;2024-03-25T12:46:01;1.30;;;1.17;;
13475;SDS011;6810;63.824;20.288;2024-03-25T12:48:51;4.13;;;1.40;;
13475;SDS011;6810;63.824;20.288;2024-03-25T12:51:37;2.27;;;1.20;;
13475;SDS011;6810;63.824;20.288;2024-03-25T12:54:23;1.93;;;1.30;;
13475;SDS011;6810;63.824;20.288;2024-03-25T12:57:10;1.17;;;1.07;;
13475;SDS011;6810;63.824;20.288;2024-03-25T12:59:57;2.90;;;1.30;;
13475;SDS011;6810;63.824;20.288;2024-03-25T13:02:43;2.73;;;1.60;;
13475;SDS011;6810;63.824;20.288;2024-03-25T13:05:29;2.40;;;1.27;;
13475;SDS011;6810;63.824;20.288;2024-03-25T13:08:16;1.33;;;1.23;;
13475;SDS011;6810;63.824;20.288;2024-03-25T13:11:02;1.27;;;1.17;;
13475;SDS011;6810;63.824;20.288;2024-03-25T13:13:48;1.70;;;1.30;;
13475;SDS011;6810;63.824;20.288;2024-03-25T13:16:34;1.50;;;1.40;;
13475;SDS011;6810;63.824;20.288;2024-03-25T13:19:21;1.50;;;1.40;;
13475;SDS011;6810;63.824;20.288;2024-03-25T13:22:07;1.97;;;1.30;;
13475;SDS011;6810;63.824;20.288;2024-03-25T13:24:53;1.90;;;1.27;;
13475;SDS011;6810;63.824;20.288;2024-03-25T13:27:39;2.03;;;1.30;;
13475;SDS011;6810;63.824;20.288;2024-03-25T13:30:25;1.80;;;1.40;;
13475;SDS011;6810;63.824;20.288;2024-03-25T13:33:11;1.63;;;1.50;;
13475;SDS011;6810;63.824;20.288;2024-03-25T13:35:57;1.93;;;1.30;;
13475;SDS011;6810;63.824;20.288;2024-03-25T13:38:44;1.70;;;1.40;;
13475;SDS011;6810;63.824;20.288;2024-03-25T13:41:30;1.77;;;1.20;;
13475;SDS011;6810;63.824;20.288;2024-03-25T13:44:16;2.10;;;1.40;;
13475;SDS011;6810;63.824;20.288;2024-03-25T13:47:02;1.80;;;1.40;;
13475;SDS011;6810;63.824;20.288;2024-03-25T13:49:48;2.30;;;1.40;;
13475;SDS011;6810;63.824;20.288;2024-03-25T13:52:35;1.37;;;1.27;;
13475;SDS011;6810;63.824;20.288;2024-03-25T13:55:21;2.33;;;1.20;;
13475;SDS011;6810;63.824;20.288;2024-03-25T13:58:07;1.57;;;1.47;;
13475;SDS011;6810;63.824;20.288;2024-03-25T14:00:53;1.93;;;1.30;;
13475;SDS011;6810;63.824;20.288;2024-03-25T14:03:39;1.77;;;1.43;;
13475;SDS011;6810;63.824;20.288;2024-03-25T14:06:25;1.60;;;1.50;;
13475;SDS011;6810;63.824;20.288;2024-03-25T14:09:27;1.50;;;1.40;;
13475;SDS011;6810;63.824;20.288;2024-03-25T14:12:13;2.87;;;1.50;;
13475;SDS011;6810;63.824;20.288;2024-03-25T14:14:59;2.17;;;1.50;;
13475;SDS011;6810;63.824;20.288;2024-03-25T14:17:45;1.83;;;1.30;;
13475;SDS011;6810;63.824;20.288;2024-03-25T14:20:32;1.70;;;1.60;;
13475;SDS011;6810;63.824;20.288;2024-03-25T14:23:18;1.93;;;1.50;;
13475;SDS011;6810;63.824;20.288;2024-03-25T14:26:04;2.87;;;1.50;;
13475;SDS011;6810;63.824;20.288;2024-03-25T14:28:50;1.50;;;1.40;;
13475;SDS011;6810;63.824;20.288;2024-03-25T14:31:36;1.70;;;1.43;;
13475;SDS011;6810;63.824;20.288;2024-03-25T14:34:22;1.47;;;1.27;;
13475;SDS011;6810;63.824;20.288;2024-03-25T14:37:09;1.87;;;1.20;;
13475;SDS011;6810;63.824;20.288;2024-03-25T14:39:55;1.57;;;1.30;;
13475;SDS011;6810;63.824;20.288;2024-03-25T14:42:41;1.43;;;1.33;;
13475;SDS011;6810;63.824;20.288;2024-03-25T14:45:27;1.90;;;1.50;;
13475;SDS011;6810;63.824;20.288;2024-03-25T14:48:13;1.87;;;1.30;;
13475;SDS011;6810;63.824;20.288;2024-03-25T14:50:59;3.37;;;1.40;;
13475;SDS011;6810;63.824;20.288;2024-03-25T14:53:45;2.83;;;1.30;;
13475;SDS011;6810;63.824;20.288;2024-03-25T14:56:32;3.27;;;1.60;;
13475;SDS011;6810;63.824;20.288;2024-03-25T14:59:18;1.50;;;1.30;;
13475;SDS011;6810;63.824;20.288;2024-03-25T15:02:05;1.83;;;1.60;;
13475;SDS011;6810;63.824;20.288;2024-03-25T15:04:51;3.30;;;1.57;;
13475;SDS011;6810;63.824;20.288;2024-03-25T15:07:37;2.10;;;1.40;;
13475;SDS011;6810;63.824;20.288;2024-03-25T15:10:23;2.30;;;1.40;;
13475;SDS011;6810;63.824;20.288;2024-03-25T15:13:10;1.83;;;1.50;;
13475;SDS011;6810;63.824;20.288;2024-03-25T15:15:56;1.83;;;1.23;;
13475;SDS011;6810;63.824;20.288;2024-03-25T15:18:43;1.40;;;1.30;;
13475;SDS011;6810;63.824;20.288;2024-03-25T15:21:29;1.87;;;1.30;;
13475;SDS011;6810;63.824;20.288;2024-03-25T15:24:15;1.87;;;1.63;;
13475;SDS011;6810;63.824;20.288;2024-03-25T15:27:02;1.93;;;1.20;;
13475;SDS011;6810;63.824;20.288;2024-03-25T15:29:48;1.40;;;1.30;;
13475;SDS011;6810;63.824;20.288;2024-03-25T15:32:34;2.23;;;1.43;;
13475;SDS011;6810;63.824;20.288;2024-03-25T15:35:20;1.87;;;1.30;;
13475;SDS011;6810;63.824;20.288;2024-03-25T15:38:06;2.07;;;1.47;;
13475;SDS011;6810;63.824;20.288;2024-03-25T15:40:52;1.97;;;1.40;;
13475;SDS011;6810;63.824;20.288;2024-03-25T15:43:38;1.57;;;1.43;;
13475;SDS011;6810;63.824;20.288;2024-03-25T15:46:24;2.47;;;1.40;;
13475;SDS011;6810;63.824;20.288;2024-03-25T15:49:11;2.57;;;1.30;;
13475;SDS011;6810;63.824;20.288;2024-03-25T15:51:57;2.93;;;1.33;;
13475;SDS011;6810;63.824;20.288;2024-03-25T15:54:43;1.40;;;1.30;;
13475;SDS011;6810;63.824;20.288;2024-03-25T15:57:29;1.70;;;1.40;;
13475;SDS011;6810;63.824;20.288;2024-03-25T16:00:15;2.17;;;1.10;;
13475;SDS011;6810;63.824;20.288;2024-03-25T16:03:02;2.57;;;1.43;;
13475;SDS011;6810;63.824;20.288;2024-03-25T16:05:49;2.77;;;1.30;;
13475;SDS011;6810;63.824;20.288;2024-03-25T16:08:35;3.90;;;1.40;;
13475;SDS011;6810;63.824;20.288;2024-03-25T16:11:21;2.20;;;1.43;;
13475;SDS011;6810;63.824;20.288;2024-03-25T16:14:07;2.47;;;1.40;;
13475;SDS011;6810;63.824;20.288;2024-03-25T16:16:56;2.90;;;1.57;;
13475;SDS011;6810;63.824;20.288;2024-03-25T16:19:42;3.67;;;1.50;;
13475;SDS011;6810;63.824;20.288;2024-03-25T16:22:29;1.83;;;1.17;;
13475;SDS011;6810;63.824;20.288;2024-03-25T16:25:15;3.20;;;1.47;;
13475;SDS011;6810;63.824;20.288;2024-03-25T16:28:02;2.37;;;1.40;;
13475;SDS011;6810;63.824;20.288;2024-03-25T16:30:48;1.63;;;1.40;;
13475;SDS011;6810;63.824;20.288;2024-03-25T16:33:34;3.60;;;1.43;;
13475;SDS011;6810;63.824;20.288;2024-03-25T16:36:20;4.83;;;1.70;;
13475;SDS011;6810;63.824;20.288;2024-03-25T16:39:06;3.93;;;1.47;;
13475;SDS011;6810;63.824;20.288;2024-03-25T16:41:52;4.77;;;1.90;;
13475;SDS011;6810;63.824;20.288;2024-03-25T16:44:38;3.70;;;1.30;;
13475;SDS011;6810;63.824;20.288;2024-03-25T16:47:25;2.47;;;1.50;;
13475;SDS011;6810;63.824;20.288;2024-03-25T16:50:11;1.97;;;1.47;;
13475;SDS011;6810;63.824;20.288;2024-03-25T16:52:57;2.13;;;1.50;;
13475;SDS011;6810;63.824;20.288;2024-03-25T16:55:43;1.53;;;1.30;;
13475;SDS011;6810;63.824;20.288;2024-03-25T16:58:29;1.83;;;1.50;;
13475;SDS011;6810;63.824;20.288;2024-03-25T17:01:15;1.83;;;1.23;;
13475;SDS011;6810;63.824;20.288;2024-03-25T17:04:01;2.73;;;1.50;;
13475;SDS011;6810;63.824;20.288;2024-03-25T17:06:47;3.30;;;1.43;;
13475;SDS011;6810;63.824;20.288;2024-03-25T17:09:33;3.20;;;1.40;;
13475;SDS011;6810;63.824;20.288;2024-03-25T17:12:20;1.70;;;1.30;;
13475;SDS011;6810;63.824;20.288;2024-03-25T17:15:06;3.67;;;1.73;;
13475;SDS011;6810;63.824;20.288;2024-03-25T17:17:32;4.60;;;1.60;;
13475;SDS011;6810;63.824;20.288;2024-03-25T17:20:03;3.20;;;1.70;;
13475;SDS011;6810;63.824;20.288;2024-03-25T17:22:53;2.63;;;1.47;;
13475;SDS011;6810;63.824;20.288;2024-03-25T17:25:39;4.13;;;1.30;;
13475;SDS011;6810;63.824;20.288;2024-03-25T17:28:25;2.93;;;1.90;;
13475;SDS011;6810;63.824;20.288;2024-03-25T17:31:11;2.60;;;1.50;;
13475;SDS011;6810;63.824;20.288;2024-03-25T17:33:57;2.43;;;1.63;;
13475;SDS011;6810;63.824;20.288;2024-03-25T17:36:44;2.83;;;1.30;;